Terminal Aerodrome Forecast
Issued by NWS

Home | Current Version | Previous Version | Text Only | Print | Product List | Glossary On
Versions: 1 2 3 4 5 6 7 8 9 10 11 12 13 14 15
288
FTUS43 KIND 280520
TAFLAF
TAF
KLAF 280520Z 2806/0106 15006KT P6SM OVC150
     FM280700 15007KT P6SM VCSH OVC090
     FM280900 15006KT 5SM -SHRA BKN050
     FM281100 18007KT P6SM VCSH OVC040
     FM281400 18008KT P6SM VCSH OVC008
     FM281500 19009KT P6SM OVC008
     FM281700 19010G21KT P6SM OVC010
     FM281900 19011G24KT P6SM OVC010
      AMD LTD TO CLD VIS AND WIND TIL 281400=

USA.gov is the U.S. government's official web portal to all federal, state and local government web resources and services.